createdAt,value
2023-05-12T00:00:35.547Z,120.71
2023-05-12T00:01:35.602Z,117.61
2023-05-12T00:02:35.724Z,117.28
2023-05-12T00:03:35.799Z,119.98
2023-05-12T00:04:35.794Z,120.07
2023-05-12T00:05:35.821Z,116.53
2023-05-12T00:06:35.867Z,118.57
2023-05-12T00:07:35.910Z,118.78
2023-05-12T00:08:35.961Z,121.60
2023-05-12T00:09:36.016Z,120.56
2023-05-12T00:10:36.062Z,117.46
2023-05-12T00:11:36.110Z,118.47
2023-05-12T00:12:36.162Z,119.96
2023-05-12T00:13:36.241Z,119.73
2023-05-12T00:14:36.256Z,117.08
2023-05-12T00:15:36.301Z,116.53
2023-05-12T00:16:36.393Z,118.10
2023-05-12T00:17:36.438Z,116.27
2023-05-12T00:18:36.471Z,116.94
2023-05-12T00:19:36.501Z,116.58
2023-05-12T00:20:36.548Z,118.92
2023-05-12T00:21:36.601Z,118.66
2023-05-12T00:22:36.644Z,116.99
2023-05-12T00:23:36.707Z,115.98
2023-05-12T00:24:36.745Z,117.99
2023-05-12T00:25:36.795Z,115.53
2023-05-12T00:26:36.844Z,114.81
2023-05-12T00:27:37.001Z,116.67
2023-05-12T00:28:36.983Z,116.26
2023-05-12T00:29:37.092Z,117.35
2023-05-12T00:30:37.090Z,118.81
2023-05-12T00:31:37.147Z,118.34
2023-05-12T00:32:37.197Z,118.85
2023-05-12T00:33:37.221Z,115.71
2023-05-12T00:34:37.271Z,115.19
2023-05-12T00:35:37.333Z,116.02
2023-05-12T00:36:37.376Z,115.47
2023-05-12T00:37:37.481Z,114.27
2023-05-12T00:38:37.526Z,116.30
2023-05-12T00:39:37.503Z,116.02
2023-05-12T00:40:37.552Z,116.51
2023-05-12T00:41:37.603Z,117.58
2023-05-12T00:42:37.660Z,115.18
2023-05-12T00:43:37.714Z,116.05
2023-05-12T00:44:37.767Z,114.73
2023-05-12T00:45:37.876Z,112.86
2023-05-12T00:46:37.899Z,117.37
2023-05-12T00:47:37.981Z,114.35
2023-05-12T00:48:38.031Z,115.46
2023-05-12T00:49:38.080Z,116.45
2023-05-12T00:50:38.145Z,117.67
2023-05-12T00:51:38.196Z,114.31
2023-05-12T00:52:38.345Z,116.27
2023-05-12T00:53:48.236Z,116.29
2023-05-12T00:54:39.334Z,116.34
2023-05-12T00:55:38.370Z,116.33
2023-05-12T00:56:38.381Z,116.13
2023-05-12T00:57:38.385Z,116.53
2023-05-12T00:58:38.398Z,119.25
2023-05-12T00:59:38.420Z,117.56
2023-05-12T01:00:38.474Z,114.64
2023-05-12T01:01:38.508Z,114.56
2023-05-12T01:02:38.531Z,114.70
2023-05-12T01:03:38.526Z,117.04
2023-05-12T01:04:38.518Z,112.88
2023-05-12T01:05:38.547Z,114.65
2023-05-12T01:06:38.562Z,113.27
2023-05-12T01:07:38.619Z,116.67
2023-05-12T01:08:38.608Z,117.12
2023-05-12T01:09:38.644Z,115.09
2023-05-12T01:10:38.697Z,115.49
2023-05-12T01:11:38.765Z,115.90
2023-05-12T01:12:38.813Z,114.60
2023-05-12T01:13:38.863Z,114.94
2023-05-12T01:14:38.932Z,113.51
2023-05-12T01:15:39.001Z,114.34
2023-05-12T01:16:39.036Z,115.68
2023-05-12T01:17:39.371Z,116.89
2023-05-12T01:18:39.174Z,113.26
2023-05-12T01:19:39.185Z,117.00
2023-05-12T01:20:39.249Z,114.79
2023-05-12T01:21:39.293Z,117.22
2023-05-12T01:22:39.341Z,112.18
2023-05-12T01:23:39.403Z,113.89
2023-05-12T01:24:39.443Z,114.61
2023-05-12T01:25:39.508Z,118.10
2023-05-12T01:26:39.538Z,118.96
2023-05-12T01:27:39.566Z,119.92
2023-05-12T01:28:39.602Z,118.57
2023-05-12T01:29:39.636Z,119.85
2023-05-12T01:30:39.677Z,121.15
2023-05-12T01:31:39.798Z,121.44
2023-05-12T01:32:39.782Z,121.57
2023-05-12T01:33:39.795Z,120.69
2023-05-12T01:34:39.829Z,119.17
2023-05-12T01:35:39.881Z,115.81
2023-05-12T01:36:39.907Z,114.68
2023-05-12T01:37:39.962Z,115.02
2023-05-12T01:38:39.999Z,114.37
2023-05-12T01:39:40.058Z,110.34
2023-05-12T01:40:40.093Z,114.11
2023-05-12T01:41:40.150Z,111.30
2023-05-12T01:42:40.198Z,112.11
2023-05-12T01:43:40.267Z,113.89
2023-05-12T01:44:40.339Z,112.65
2023-05-12T01:45:40.373Z,111.95
2023-05-12T01:46:40.506Z,116.84
2023-05-12T01:47:40.548Z,109.45
2023-05-12T01:48:40.550Z,114.69
2023-05-12T01:49:40.643Z,115.50
2023-05-12T01:50:40.670Z,113.50
2023-05-12T01:51:40.731Z,108.20
2023-05-12T01:52:40.795Z,110.88
2023-05-12T01:53:40.845Z,112.56
2023-05-12T01:54:41.028Z,110.92
2023-05-12T01:55:41.018Z,112.49
2023-05-12T01:56:41.033Z,112.20
2023-05-12T01:57:41.159Z,109.55
2023-05-12T01:58:41.214Z,111.35
2023-05-12T01:59:41.217Z,113.34
2023-05-12T02:00:41.285Z,113.78
2023-05-12T02:01:41.404Z,114.24
2023-05-12T02:02:42.950Z,111.37
2023-05-12T02:03:41.579Z,111.58
2023-05-12T02:04:41.545Z,111.87
2023-05-12T02:05:41.608Z,111.50
2023-05-12T02:06:41.660Z,113.78
2023-05-12T02:07:41.726Z,111.99
2023-05-12T02:08:41.774Z,111.85
2023-05-12T02:09:41.837Z,111.01
2023-05-12T02:10:41.906Z,110.14
2023-05-12T02:11:41.961Z,112.27
2023-05-12T02:12:42.027Z,112.06
2023-05-12T02:13:42.080Z,111.34
2023-05-12T02:14:42.140Z,112.81
2023-05-12T02:15:42.214Z,109.53
2023-05-12T02:16:42.322Z,112.15
2023-05-12T02:17:42.389Z,108.99
2023-05-12T02:18:42.460Z,112.29
2023-05-12T02:19:42.475Z,107.28
2023-05-12T02:20:42.534Z,111.16
2023-05-12T02:21:42.660Z,108.23
2023-05-12T02:22:42.732Z,111.60
2023-05-12T02:23:42.729Z,107.98
2023-05-12T02:24:42.772Z,113.26
2023-05-12T02:25:42.829Z,110.29
2023-05-12T02:26:42.886Z,108.30
2023-05-12T02:27:42.948Z,113.17
2023-05-12T02:28:43.000Z,111.09
2023-05-12T02:29:43.065Z,108.94
2023-05-12T02:30:43.111Z,113.30
2023-05-12T02:31:43.217Z,110.36
2023-05-12T02:32:43.323Z,112.70
2023-05-12T02:33:43.306Z,112.50
2023-05-12T02:34:43.379Z,112.14
2023-05-12T02:35:43.440Z,109.05
2023-05-12T02:36:43.507Z,112.14
2023-05-12T02:37:43.547Z,111.54
2023-05-12T02:38:43.627Z,111.78
2023-05-12T02:39:43.695Z,109.76
2023-05-12T02:40:43.761Z,109.94
2023-05-12T02:41:43.841Z,110.29
2023-05-12T02:42:43.906Z,111.11
2023-05-12T02:43:43.969Z,108.36
2023-05-12T02:44:44.037Z,111.23
2023-05-12T02:45:44.191Z,107.83
2023-05-12T02:46:44.179Z,109.26
2023-05-12T02:47:44.266Z,109.04
2023-05-12T02:48:44.331Z,107.91
2023-05-12T02:49:44.398Z,111.81
2023-05-12T02:50:44.461Z,107.63
2023-05-12T02:51:44.538Z,108.27
2023-05-12T02:52:44.628Z,109.56
2023-05-12T02:53:44.695Z,108.69
2023-05-12T02:54:44.761Z,109.74
2023-05-12T02:55:44.816Z,109.17
2023-05-12T02:56:44.888Z,109.37
2023-05-12T02:57:44.949Z,107.68
2023-05-12T02:58:45.023Z,109.90
2023-05-12T02:59:45.089Z,109.82
2023-05-12T03:00:45.162Z,106.35
2023-05-12T03:01:45.266Z,109.80
2023-05-12T03:02:45.353Z,108.33
2023-05-12T03:03:45.497Z,106.96
2023-05-12T03:04:45.449Z,108.43
2023-05-12T03:05:45.495Z,108.18
2023-05-12T03:06:45.593Z,108.90
2023-05-12T03:07:45.646Z,106.41
2023-05-12T03:08:45.704Z,109.80
2023-05-12T03:09:45.776Z,106.38
2023-05-12T03:10:45.837Z,107.43
2023-05-12T03:11:45.915Z,106.97
2023-05-12T03:12:45.993Z,109.19
2023-05-12T03:13:46.055Z,111.13
2023-05-12T03:14:46.127Z,109.22
2023-05-12T03:15:46.215Z,111.88
2023-05-12T03:16:46.327Z,109.87
2023-05-12T03:17:46.362Z,108.24
2023-05-12T03:18:46.426Z,106.32
2023-05-12T03:19:46.485Z,110.05
2023-05-12T03:20:46.554Z,105.22
2023-05-12T03:21:46.616Z,107.39
2023-05-12T03:22:46.689Z,104.94
2023-05-12T03:23:46.764Z,104.81
2023-05-12T03:24:46.829Z,107.94
2023-05-12T03:25:46.898Z,105.66
2023-05-12T03:26:46.975Z,106.57
2023-05-12T03:27:47.039Z,106.60
2023-05-12T03:28:47.098Z,106.49
2023-05-12T03:29:47.174Z,107.35
2023-05-12T03:30:47.252Z,106.09
2023-05-12T03:31:47.363Z,104.39
2023-05-12T03:32:47.449Z,109.03
2023-05-12T03:33:47.458Z,108.33
2023-05-12T03:34:47.523Z,108.53
2023-05-12T03:35:47.588Z,106.40
2023-05-12T03:36:47.665Z,105.48
2023-05-12T03:37:47.733Z,107.82
2023-05-12T03:38:47.815Z,103.84
2023-05-12T03:39:47.878Z,103.66
2023-05-12T03:40:47.944Z,105.07
2023-05-12T03:41:48.011Z,105.75
2023-05-12T03:42:48.095Z,108.31
2023-05-12T03:43:48.154Z,108.89
2023-05-12T03:44:48.243Z,106.88
2023-05-12T03:45:48.302Z,109.53
2023-05-12T03:46:48.441Z,108.42
2023-05-12T03:47:48.559Z,102.12
2023-05-12T03:48:48.527Z,107.48
2023-05-12T03:49:48.615Z,106.31
2023-05-12T03:50:48.674Z,104.42
2023-05-12T03:51:48.749Z,106.15
2023-05-12T03:52:48.828Z,106.61
2023-05-12T03:53:48.896Z,103.12
2023-05-12T03:54:48.983Z,107.52
2023-05-12T03:55:49.048Z,104.53
2023-05-12T03:56:49.130Z,106.28
2023-05-12T03:57:49.198Z,105.16
2023-05-12T03:58:49.272Z,107.20
2023-05-12T03:59:49.358Z,106.02
2023-05-12T04:00:49.420Z,104.49
2023-05-12T04:01:49.505Z,105.14
2023-05-12T04:02:49.737Z,101.59
2023-05-12T04:03:49.737Z,104.94
2023-05-12T04:04:49.704Z,103.65
2023-05-12T04:05:49.790Z,103.66
2023-05-12T04:06:49.863Z,101.18
2023-05-12T04:07:49.927Z,105.89
2023-05-12T04:08:50.002Z,104.28
2023-05-12T04:09:50.070Z,104.46
2023-05-12T04:10:50.143Z,104.72
2023-05-12T04:11:50.218Z,103.65
2023-05-12T04:12:50.291Z,103.00
2023-05-12T04:13:50.366Z,103.88
2023-05-12T04:14:50.442Z,103.00
2023-05-12T04:15:50.516Z,103.99
2023-05-12T04:16:50.687Z,104.74
2023-05-12T04:17:50.686Z,101.01
2023-05-12T04:18:50.748Z,104.36
2023-05-12T04:19:50.805Z,99.71
2023-05-12T04:20:50.883Z,103.33
2023-05-12T04:21:50.949Z,103.91
2023-05-12T04:22:51.039Z,104.16
2023-05-12T04:23:51.093Z,103.70
2023-05-12T04:24:51.167Z,103.59
2023-05-12T04:25:51.246Z,100.95
2023-05-12T04:26:51.318Z,103.52
2023-05-12T04:27:51.385Z,101.64
2023-05-12T04:28:51.468Z,100.47
2023-05-12T04:29:51.541Z,101.14
2023-05-12T04:30:51.605Z,98.19
2023-05-12T04:31:51.741Z,102.20
2023-05-12T04:32:51.814Z,101.55
2023-05-12T04:33:51.941Z,101.62
2023-05-12T04:34:51.915Z,101.46
2023-05-12T04:35:51.987Z,101.55
2023-05-12T04:36:52.070Z,101.75
2023-05-12T04:37:52.136Z,103.23
2023-05-12T04:38:52.207Z,99.49
2023-05-12T04:39:52.282Z,102.78
2023-05-12T04:40:52.347Z,100.22
2023-05-12T04:41:52.418Z,99.39
2023-05-12T04:42:52.514Z,102.07
2023-05-12T04:44:52.585Z,102.43
2023-05-12T04:45:52.676Z,100.73
2023-05-12T04:46:52.631Z,99.02
2023-05-12T04:47:52.736Z,98.84
2023-05-12T04:48:52.669Z,101.12
2023-05-12T04:49:52.686Z,99.24
2023-05-12T04:50:52.701Z,101.58
2023-05-12T04:51:52.734Z,99.36
2023-05-12T04:52:52.760Z,103.56
2023-05-12T04:53:52.775Z,101.03
2023-05-12T04:54:52.791Z,99.51
2023-05-12T04:55:52.833Z,97.65
2023-05-12T04:56:52.835Z,96.95
2023-05-12T04:57:52.853Z,98.72
2023-05-12T04:58:52.862Z,98.73
2023-05-12T04:59:52.910Z,100.29
2023-05-12T05:00:52.917Z,98.92
2023-05-12T05:01:53.046Z,106.30
2023-05-12T05:02:53.183Z,112.87
2023-05-12T05:03:53.083Z,113.05
2023-05-12T05:04:52.997Z,119.08
2023-05-12T05:05:53.088Z,124.58
2023-05-12T05:06:53.017Z,126.99
2023-05-12T05:07:53.040Z,124.34
2023-05-12T05:08:53.059Z,122.10
2023-05-12T05:09:53.075Z,119.36
2023-05-12T05:10:53.084Z,119.34
2023-05-12T05:11:53.110Z,121.86
2023-05-12T05:12:53.125Z,120.74
2023-05-12T05:13:53.136Z,123.11
2023-05-12T05:14:53.157Z,125.67
2023-05-12T05:15:53.300Z,128.33
2023-05-12T05:16:53.189Z,139.75
2023-05-12T05:17:53.215Z,148.88
2023-05-12T05:18:53.297Z,151.54
2023-05-12T05:19:58.414Z,153.25
2023-05-12T05:20:57.717Z,153.77
2023-05-12T05:22:08.534Z,153.98
2023-05-12T05:22:53.553Z,154.28
2023-05-12T05:23:55.396Z,158.73
2023-05-12T05:24:53.628Z,154.79
2023-05-12T05:25:53.655Z,159.96
2023-05-12T05:26:53.683Z,168.05
2023-05-12T05:27:53.730Z,179.66
2023-05-12T05:28:53.748Z,154.82
2023-05-12T05:29:53.776Z,159.85
2023-05-12T05:30:53.816Z,169.31
2023-05-12T05:31:53.882Z,180.90
2023-05-12T05:32:53.940Z,208.73
2023-05-12T05:33:53.934Z,214.69
2023-05-12T05:34:53.892Z,211.93
2023-05-12T05:35:53.913Z,215.77
2023-05-12T05:36:53.968Z,219.05
2023-05-12T05:37:54.086Z,219.99
2023-05-12T05:38:54.145Z,221.78
2023-05-12T05:39:54.216Z,223.45
2023-05-12T05:40:54.802Z,222.30
2023-05-12T05:41:54.359Z,225.74
2023-05-12T05:42:54.437Z,226.86
2023-05-12T05:43:54.497Z,227.87
2023-05-12T05:44:54.549Z,222.82
2023-05-12T05:45:54.636Z,228.78
2023-05-12T05:46:54.745Z,228.95
2023-05-12T05:47:54.825Z,227.62
2023-05-12T05:48:54.865Z,225.77
2023-05-12T05:49:54.941Z,225.20
2023-05-12T05:50:55.002Z,224.18
2023-05-12T05:51:55.074Z,226.92
2023-05-12T05:52:55.149Z,223.75
2023-05-12T05:53:55.219Z,229.21
2023-05-12T05:54:55.285Z,226.79
2023-05-12T05:55:55.352Z,228.14
2023-05-12T05:56:55.422Z,225.65
2023-05-12T05:57:55.492Z,222.18
2023-05-12T05:58:55.560Z,211.05
2023-05-12T05:59:55.649Z,206.39
2023-05-12T06:00:55.740Z,206.30
2023-05-12T06:01:55.831Z,209.35
2023-05-12T06:02:56.059Z,214.76
2023-05-12T06:03:56.042Z,216.59
2023-05-12T06:04:56.041Z,216.73
2023-05-12T06:05:56.108Z,220.60
2023-05-12T06:06:56.182Z,216.84
2023-05-12T06:07:56.281Z,217.23
2023-05-12T06:08:56.697Z,212.56
2023-05-12T06:09:56.441Z,212.58
2023-05-12T06:10:56.520Z,210.28
2023-05-12T06:11:56.611Z,209.90
2023-05-12T06:12:56.679Z,205.46
2023-05-12T06:13:56.827Z,205.38
2023-05-12T06:14:56.827Z,199.87
2023-05-12T06:15:56.901Z,204.83
2023-05-12T06:16:57.069Z,203.19
2023-05-12T06:17:57.077Z,201.96
2023-05-12T06:18:57.174Z,201.18
2023-05-12T06:19:57.184Z,199.66
2023-05-12T06:20:57.273Z,192.48
2023-05-12T06:21:57.346Z,192.85
2023-05-12T06:22:57.428Z,192.98
2023-05-12T06:23:57.425Z,195.16
2023-05-12T06:24:57.466Z,196.93
2023-05-12T06:25:58.683Z,201.52
2023-05-12T06:26:57.569Z,210.95
2023-05-12T06:27:57.635Z,209.37
2023-05-12T06:28:57.720Z,213.24
2023-05-12T06:29:57.758Z,218.07
2023-05-12T06:30:57.840Z,219.00
2023-05-12T06:31:57.937Z,218.96
2023-05-12T06:32:58.091Z,220.29
2023-05-12T06:33:58.860Z,221.83
2023-05-12T06:34:58.172Z,223.62
2023-05-12T06:35:58.254Z,221.23
2023-05-12T06:36:58.317Z,226.32
2023-05-12T06:37:58.399Z,230.69
2023-05-12T06:38:58.405Z,230.84
2023-05-12T06:39:58.423Z,231.13
2023-05-12T06:40:58.446Z,232.00
2023-05-12T06:41:58.553Z,233.31
2023-05-12T06:42:58.487Z,233.37
2023-05-12T06:43:58.494Z,236.99
2023-05-12T06:44:58.530Z,236.12
2023-05-12T06:45:58.537Z,236.99
2023-05-12T06:46:58.544Z,236.94
2023-05-12T06:47:58.674Z,236.54
2023-05-12T06:48:58.588Z,239.90
2023-05-12T06:49:58.603Z,240.15
2023-05-12T06:50:58.632Z,240.88
2023-05-12T06:51:58.648Z,240.47
2023-05-12T06:52:58.674Z,243.37
2023-05-12T06:53:58.703Z,242.73
2023-05-12T06:54:58.721Z,245.18
2023-05-12T06:55:58.745Z,246.27
2023-05-12T06:56:58.756Z,242.58
2023-05-12T06:57:58.786Z,242.60
2023-05-12T06:58:58.800Z,246.24
2023-05-12T06:59:58.803Z,242.41
2023-05-12T07:00:58.837Z,243.37
2023-05-12T07:01:58.928Z,239.56
2023-05-12T07:02:58.973Z,235.97
2023-05-12T07:03:59.050Z,243.24
2023-05-12T07:04:59.087Z,239.97
2023-05-12T07:05:59.168Z,238.49
2023-05-12T07:06:59.188Z,238.70
2023-05-12T07:07:59.223Z,238.67
2023-05-12T07:08:59.236Z,238.72
2023-05-12T07:09:59.270Z,238.83
2023-05-12T07:10:59.292Z,239.85
2023-05-12T07:11:59.307Z,238.06
2023-05-12T07:12:59.325Z,237.03
2023-05-12T07:13:59.358Z,235.30
2023-05-12T07:14:59.383Z,236.08
2023-05-12T07:15:59.464Z,232.73
2023-05-12T07:16:59.488Z,237.72
2023-05-12T07:17:59.515Z,240.55
2023-05-12T07:18:59.572Z,240.95
2023-05-12T07:19:59.597Z,228.53
2023-05-12T07:20:59.642Z,216.19
2023-05-12T07:21:59.705Z,191.84
2023-05-12T07:22:59.802Z,198.20
2023-05-12T07:23:59.874Z,201.08
2023-05-12T07:24:59.973Z,172.28
2023-05-12T07:26:00.886Z,149.81
2023-05-12T07:27:00.014Z,113.07
2023-05-12T07:28:00.133Z,97.10
2023-05-12T07:29:00.175Z,82.12
2023-05-12T07:30:00.189Z,49.90
2023-05-12T07:31:00.248Z,32.01
2023-05-12T07:32:00.232Z,31.78
2023-05-12T07:33:00.386Z,19.49
2023-05-12T07:34:00.271Z,53.42
2023-05-12T07:35:00.315Z,91.12
2023-05-12T07:36:00.324Z,99.46
2023-05-12T07:37:00.348Z,131.91
2023-05-12T07:38:00.385Z,154.90
2023-05-12T07:39:00.403Z,166.58
2023-05-12T07:40:00.427Z,177.67
2023-05-12T07:41:00.617Z,184.85
2023-05-12T07:42:00.598Z,194.19
2023-05-12T07:43:00.679Z,250.00
2023-05-12T07:44:00.769Z,238.76
2023-05-12T07:45:01.123Z,231.08
2023-05-12T07:46:01.024Z,239.73
2023-05-12T07:47:01.039Z,250.00
2023-05-12T07:48:01.085Z,249.03
2023-05-12T07:49:01.164Z,250.19
2023-05-12T07:50:01.230Z,248.07
2023-05-12T07:51:01.898Z,249.84
2023-05-12T07:52:01.365Z,250.00
2023-05-12T07:53:01.460Z,247.41
2023-05-12T07:54:01.541Z,245.17
2023-05-12T07:55:02.411Z,244.69
2023-05-12T07:56:01.698Z,242.01
2023-05-12T07:57:01.802Z,241.44
2023-05-12T07:58:01.862Z,238.27
2023-05-12T07:59:01.961Z,236.13
2023-05-12T08:00:02.105Z,236.97
2023-05-12T08:01:02.109Z,236.83
2023-05-12T08:02:02.372Z,236.78
2023-05-12T08:03:02.505Z,234.79
2023-05-12T08:04:02.451Z,232.29
2023-05-12T08:05:02.429Z,228.95
2023-05-12T08:06:02.604Z,233.21
2023-05-12T08:07:02.621Z,232.25
2023-05-12T08:08:02.702Z,229.45
2023-05-12T08:09:02.771Z,229.45
2023-05-12T08:10:02.849Z,225.87
2023-05-12T08:11:02.935Z,227.08
2023-05-12T08:12:03.011Z,226.41
2023-05-12T08:13:03.050Z,224.36
2023-05-12T08:14:03.070Z,221.90
2023-05-12T08:15:03.111Z,215.77
2023-05-12T08:16:03.921Z,220.04
2023-05-12T08:17:03.237Z,227.60
2023-05-12T08:18:03.328Z,226.32
2023-05-12T08:19:03.960Z,219.05
2023-05-12T08:20:03.298Z,222.57
2023-05-12T08:21:03.334Z,222.84
2023-05-12T08:22:03.357Z,223.64
2023-05-12T08:23:03.399Z,223.25
2023-05-12T08:24:03.403Z,225.68
2023-05-12T08:25:03.448Z,229.74
2023-05-12T08:26:03.460Z,228.98
2023-05-12T08:27:03.481Z,242.77
2023-05-12T08:28:03.498Z,247.61
2023-05-12T08:29:03.490Z,250.00
2023-05-12T08:30:03.511Z,241.04
2023-05-12T08:31:05.044Z,241.07
2023-05-12T08:32:03.561Z,235.62
2023-05-12T08:33:04.462Z,239.83
2023-05-12T08:34:10.335Z,237.92
2023-05-12T08:35:04.609Z,238.09
2023-05-12T08:36:04.344Z,235.87
2023-05-12T08:37:03.624Z,228.71
2023-05-12T08:38:03.634Z,224.50
2023-05-12T08:39:03.636Z,222.34
2023-05-12T08:40:03.778Z,220.98
2023-05-12T08:41:03.654Z,221.18
2023-05-12T08:42:03.673Z,226.14
2023-05-12T08:43:03.692Z,229.88
2023-05-12T08:44:03.684Z,224.90
2023-05-12T08:45:03.694Z,227.67
2023-05-12T08:46:03.723Z,222.97
2023-05-12T08:47:03.732Z,223.04
2023-05-12T08:48:03.803Z,228.18
2023-05-12T08:49:03.726Z,226.19
2023-05-12T08:50:03.885Z,224.31
2023-05-12T08:51:03.823Z,219.78
2023-05-12T08:52:03.864Z,215.45
2023-05-12T08:53:03.988Z,215.53
2023-05-12T08:54:03.981Z,209.57
2023-05-12T08:55:04.054Z,213.21
2023-05-12T08:58:04.091Z,214.30
2023-05-12T08:59:04.108Z,215.65
2023-05-12T09:00:04.130Z,216.86
2023-05-12T09:01:04.974Z,220.39
2023-05-12T09:02:04.166Z,223.37
2023-05-12T09:03:04.172Z,224.92
2023-05-12T09:04:04.236Z,223.15
2023-05-12T09:05:04.438Z,221.45
2023-05-12T09:06:04.177Z,228.67
2023-05-12T09:07:04.192Z,235.54
2023-05-12T09:08:04.175Z,229.76
2023-05-12T09:09:04.250Z,228.31
2023-05-12T09:10:04.200Z,222.10
2023-05-12T09:11:04.212Z,237.89
2023-05-12T09:12:04.242Z,241.10
2023-05-12T09:13:04.225Z,240.43
2023-05-12T09:14:04.241Z,237.35
2023-05-12T09:15:04.232Z,225.37
2023-05-12T09:16:04.268Z,217.70
2023-05-12T09:17:04.272Z,217.72
2023-05-12T09:18:04.338Z,215.74
2023-05-12T09:19:06.828Z,206.24
2023-05-12T09:20:04.329Z,207.96
2023-05-12T09:21:04.340Z,206.95
2023-05-12T09:22:04.497Z,202.76
2023-05-12T09:23:04.378Z,205.19
2023-05-12T09:24:04.408Z,208.32
2023-05-12T09:25:04.415Z,209.25
2023-05-12T09:26:04.446Z,207.90
2023-05-12T09:27:04.457Z,214.92
2023-05-12T09:28:04.456Z,207.54
2023-05-12T09:29:04.462Z,209.44
2023-05-12T09:30:04.471Z,213.26
2023-05-12T09:31:04.540Z,214.57
2023-05-12T09:32:04.551Z,209.61
2023-05-12T09:33:05.480Z,210.95
2023-05-12T09:34:04.520Z,211.22
2023-05-12T09:35:04.534Z,211.86
2023-05-12T09:36:04.538Z,212.66
2023-05-12T09:37:04.556Z,213.40
2023-05-12T09:38:04.552Z,213.94
2023-05-12T09:39:04.648Z,215.37
2023-05-12T09:40:04.655Z,212.38
2023-05-12T09:41:04.586Z,209.33
2023-05-12T09:42:04.618Z,211.26
2023-05-12T09:43:04.624Z,207.18
2023-05-12T09:44:04.638Z,210.73
2023-05-12T09:45:04.627Z,215.45
2023-05-12T09:46:04.663Z,215.68
2023-05-12T09:47:04.676Z,215.24
2023-05-12T09:48:04.770Z,216.65
2023-05-12T09:49:04.791Z,219.66
2023-05-12T09:50:04.916Z,219.10
2023-05-12T09:51:04.894Z,215.63
2023-05-12T09:52:04.972Z,220.09
2023-05-12T09:53:04.993Z,221.37
2023-05-12T09:54:06.427Z,223.13
2023-05-12T09:55:05.068Z,225.23
2023-05-12T09:56:05.068Z,225.64
2023-05-12T09:57:05.229Z,224.22
2023-05-12T09:58:05.092Z,221.17
2023-05-12T09:59:05.115Z,219.18
2023-05-12T10:00:13.793Z,218.61
2023-05-12T10:02:05.186Z,219.22
2023-05-12T10:03:05.176Z,219.33
2023-05-12T10:04:05.176Z,220.07
2023-05-12T10:05:05.302Z,220.02
2023-05-12T10:06:07.690Z,221.74
2023-05-12T10:07:05.230Z,223.59
2023-05-12T10:08:05.260Z,222.73
2023-05-12T10:09:05.251Z,220.47
2023-05-12T10:10:05.290Z,224.73
2023-05-12T10:11:05.313Z,222.89
2023-05-12T10:12:05.325Z,233.57
2023-05-12T10:13:05.373Z,234.24
2023-05-12T10:14:05.398Z,235.52
2023-05-12T10:15:05.979Z,237.56
2023-05-12T10:16:05.457Z,243.73
2023-05-12T10:17:05.546Z,243.10
2023-05-12T10:18:05.563Z,241.48
2023-05-12T10:19:05.645Z,243.96
2023-05-12T10:20:06.909Z,248.11
2023-05-12T10:21:05.717Z,248.29
2023-05-12T10:22:05.610Z,247.30
2023-05-12T10:23:05.639Z,244.54
2023-05-12T10:24:05.712Z,247.15
2023-05-12T10:25:05.774Z,247.38
2023-05-12T10:26:05.730Z,248.86
2023-05-12T10:27:05.763Z,248.62
2023-05-12T10:28:05.801Z,250.00
2023-05-12T10:29:05.811Z,250.00
2023-05-12T10:30:05.835Z,250.00
2023-05-12T10:31:05.900Z,249.41
2023-05-12T10:32:05.878Z,248.14
2023-05-12T10:33:05.912Z,248.58
2023-05-12T10:34:05.936Z,247.74
2023-05-12T10:35:05.948Z,247.31
2023-05-12T10:36:05.969Z,248.63
2023-05-12T10:37:05.995Z,249.63
2023-05-12T10:38:06.017Z,244.65
2023-05-12T10:39:06.025Z,248.82
2023-05-12T10:40:06.046Z,248.53
2023-05-12T10:41:06.089Z,247.35
2023-05-12T10:42:06.100Z,244.46
2023-05-12T10:43:06.108Z,245.52
2023-05-12T10:44:06.149Z,244.49
2023-05-12T10:45:06.230Z,242.14
2023-05-12T10:46:06.425Z,239.26
2023-05-12T10:47:06.408Z,241.85
2023-05-12T10:48:07.023Z,240.03
2023-05-12T10:49:06.559Z,243.15
2023-05-12T10:50:06.590Z,246.27
2023-05-12T10:51:06.644Z,243.58
2023-05-12T10:52:07.420Z,245.65
2023-05-12T10:53:08.090Z,246.00
2023-05-12T10:54:06.858Z,247.20
2023-05-12T10:55:06.941Z,244.86
2023-05-12T10:56:07.447Z,243.27
2023-05-12T10:57:07.345Z,246.01
2023-05-12T10:58:07.615Z,243.00
2023-05-12T10:59:07.613Z,244.24
2023-05-12T11:00:07.838Z,239.89
2023-05-12T11:01:08.124Z,242.27
2023-05-12T11:02:08.123Z,244.64
2023-05-12T11:03:10.353Z,237.05
2023-05-12T11:04:07.642Z,232.98
2023-05-12T11:05:08.463Z,231.06
2023-05-12T11:06:08.711Z,226.55
2023-05-12T11:07:08.029Z,231.31
2023-05-12T11:08:07.988Z,233.33
2023-05-12T11:09:08.962Z,236.09
2023-05-12T11:10:08.129Z,240.53
2023-05-12T11:11:08.933Z,242.17
2023-05-12T11:12:08.813Z,236.36
2023-05-12T11:13:07.739Z,240.62
2023-05-12T11:14:07.765Z,238.43
2023-05-12T11:15:07.793Z,245.48
2023-05-12T11:16:07.787Z,244.32
2023-05-12T11:17:08.508Z,242.36
2023-05-12T11:18:07.850Z,244.96
2023-05-12T11:19:07.881Z,245.77
2023-05-12T11:20:07.858Z,250.00
2023-05-12T11:21:07.869Z,247.85
2023-05-12T11:22:07.942Z,246.62
2023-05-12T11:23:08.020Z,245.04
2023-05-12T11:24:08.098Z,244.23
2023-05-12T11:25:08.240Z,241.52
2023-05-12T11:26:08.248Z,239.50
2023-05-12T11:27:08.302Z,236.48
2023-05-12T11:28:08.378Z,235.92
2023-05-12T11:29:08.442Z,236.45
2023-05-12T11:30:08.536Z,234.29
2023-05-12T11:31:08.591Z,233.35
2023-05-12T11:32:08.727Z,232.74
2023-05-12T11:33:08.803Z,231.47
2023-05-12T11:34:13.285Z,231.54
2023-05-12T11:35:08.845Z,231.68
2023-05-12T11:36:08.861Z,231.43
2023-05-12T11:37:08.897Z,231.10
2023-05-12T11:38:08.902Z,227.64
2023-05-12T11:39:08.932Z,227.99
2023-05-12T11:40:08.939Z,226.09
2023-05-12T11:41:08.952Z,226.39
2023-05-12T11:42:12.705Z,226.17
2023-05-12T11:43:10.006Z,225.73
2023-05-12T11:44:08.999Z,222.60
2023-05-12T11:45:09.017Z,221.51
2023-05-12T11:46:09.145Z,219.17
2023-05-12T11:47:09.034Z,217.40
2023-05-12T11:48:09.239Z,216.86
2023-05-12T11:49:09.078Z,216.33
2023-05-12T11:50:09.089Z,215.79
2023-05-12T11:51:09.126Z,212.64
2023-05-12T11:52:09.117Z,198.09
2023-05-12T11:53:09.141Z,193.51
2023-05-12T11:54:09.160Z,180.35
2023-05-12T11:55:09.226Z,167.08
2023-05-12T11:56:09.292Z,151.04
2023-05-12T11:57:09.377Z,143.10
2023-05-12T11:58:09.432Z,132.20
2023-05-12T11:59:09.499Z,129.79
2023-05-12T12:00:09.590Z,121.37
2023-05-12T12:01:09.665Z,129.31
2023-05-12T12:02:10.548Z,122.42
2023-05-12T12:03:09.968Z,118.35
2023-05-12T12:04:09.936Z,114.41
2023-05-12T12:05:10.020Z,117.36
2023-05-12T12:06:10.044Z,129.54
2023-05-12T12:07:10.143Z,134.80
2023-05-12T12:08:10.230Z,138.40
2023-05-12T12:09:10.319Z,135.31
2023-05-12T12:10:10.395Z,132.81
2023-05-12T12:11:10.481Z,124.41
2023-05-12T12:12:10.552Z,105.80
2023-05-12T12:13:10.629Z,95.99
2023-05-12T12:14:10.713Z,90.48
2023-05-12T12:15:10.780Z,87.78
2023-05-12T12:16:12.899Z,89.29
2023-05-12T12:17:10.866Z,98.50
2023-05-12T12:18:10.920Z,102.06
2023-05-12T12:19:10.972Z,107.05
2023-05-12T12:20:10.986Z,112.15
2023-05-12T12:21:10.936Z,117.29
2023-05-12T12:22:10.977Z,122.42
2023-05-12T12:23:10.997Z,118.52
2023-05-12T12:24:11.012Z,112.30
2023-05-12T12:25:11.020Z,108.43
2023-05-12T12:26:11.031Z,109.09
2023-05-12T12:27:11.057Z,111.44
2023-05-12T12:28:11.085Z,114.79
2023-05-12T12:29:11.110Z,111.18
2023-05-12T12:30:11.180Z,109.80
2023-05-12T12:31:11.179Z,111.74
2023-05-12T12:32:11.172Z,114.69
2023-05-12T12:33:11.247Z,122.98
2023-05-12T12:34:11.220Z,128.09